LPE2481 SEGU-SPJC
Flight info
| Callsign | LPE2481 |
|---|---|
| Flight time | 1h 29m |
| Altitude | 37000 |
| Route | EVRED2A EVRED UL780 TRU UV1 ATATU |
| Aircraft | B763/H-SDE3FGHIM3RWXY/LB1 |
Departure
| Time | 2026-04-23 04:27 |
|---|---|
| Airport | José Joaquín de Olmedo International Airport (SEGU) |
Arrival
| Time | 2026-04-23 05:56 |
|---|---|
| Airport | Jorge Chávez International Airport (SPJC) |
| Time | Latitude | Longitude | Altitude | Speed | Heading |
|---|---|---|---|---|---|
| 2026-04-23 03:49 | -2.14760 | -79.88275 | 36 ft | 0 kts | 297° |
| 2026-04-23 04:17 | -2.14760 | -79.88274 | 36 ft | 1 kts | 297° |
| 2026-04-23 04:17 | -2.14768 | -79.88261 | 36 ft | 2 kts | 306° |
| 2026-04-23 04:17 | -2.14778 | -79.88250 | 36 ft | 2 kts | 320° |
| 2026-04-23 04:18 | -2.14790 | -79.88241 | 36 ft | 2 kts | 332° |
| 2026-04-23 04:18 | -2.14805 | -79.88235 | 36 ft | 2 kts | 345° |
| 2026-04-23 04:18 | -2.14820 | -79.88232 | 35 ft | 2 kts | 357° |
| 2026-04-23 04:18 | -2.14835 | -79.88232 | 35 ft | 2 kts | 9° |
| 2026-04-23 04:19 | -2.14850 | -79.88236 | 35 ft | 2 kts | 22° |
| 2026-04-23 04:19 | -2.14859 | -79.88240 | 35 ft | 1 kts | 30° |
| 2026-04-23 04:19 | -2.14860 | -79.88242 | 35 ft | 0 kts | 30° |
| 2026-04-23 04:22 | -2.14849 | -79.88235 | 35 ft | 4 kts | 30° |
| 2026-04-23 04:22 | -2.14808 | -79.88210 | 35 ft | 8 kts | 32° |
| 2026-04-23 04:22 | -2.14788 | -79.88166 | 35 ft | 6 kts | 103° |
| 2026-04-23 04:22 | -2.14811 | -79.88123 | 34 ft | 7 kts | 122° |
| 2026-04-23 04:23 | -2.14838 | -79.88075 | 32 ft | 7 kts | 111° |
| 2026-04-23 04:23 | -2.14830 | -79.88034 | 32 ft | 5 kts | 45° |
| 2026-04-23 04:23 | -2.14801 | -79.88017 | 32 ft | 4 kts | 30° |
| 2026-04-23 04:23 | -2.14772 | -79.88000 | 32 ft | 4 kts | 30° |
| 2026-04-23 04:24 | -2.14740 | -79.87981 | 33 ft | 6 kts | 30° |
| 2026-04-23 04:24 | -2.14697 | -79.87954 | 33 ft | 8 kts | 37° |
| 2026-04-23 04:24 | -2.14655 | -79.87896 | 32 ft | 12 kts | 77° |
| 2026-04-23 04:24 | -2.14637 | -79.87799 | 31 ft | 15 kts | 92° |
| 2026-04-23 04:25 | -2.14686 | -79.87757 | 31 ft | 6 kts | 200° |
| 2026-04-23 04:25 | -2.14725 | -79.87781 | 31 ft | 6 kts | 214° |
| 2026-04-23 04:25 | -2.14750 | -79.87798 | 31 ft | 0 kts | 210° |
| 2026-04-23 04:25 | -2.14765 | -79.87807 | 31 ft | 15 kts | 209° |
| 2026-04-23 04:26 | -2.15053 | -79.87971 | 31 ft | 79 kts | 209° |
| 2026-04-23 04:26 | -2.15717 | -79.88355 | 35 ft | 136 kts | 212° |
| 2026-04-23 04:26 | -2.16693 | -79.88917 | 108 ft | 181 kts | 207° |
| 2026-04-23 04:26 | -2.17873 | -79.89565 | 577 ft | 199 kts | 209° |
| 2026-04-23 04:27 | -2.19096 | -79.90243 | 1430 ft | 195 kts | 209° |
| 2026-04-23 04:27 | -2.20297 | -79.90847 | 1949 ft | 203 kts | 194° |
| 2026-04-23 04:27 | -2.21794 | -79.90840 | 2090 ft | 230 kts | 166° |
| 2026-04-23 04:28 | -2.25250 | -79.90073 | 3076 ft | 261 kts | 167° |
| 2026-04-23 04:28 | -2.27094 | -79.89671 | 3449 ft | 283 kts | 167° |
| 2026-04-23 04:28 | -2.29111 | -79.89230 | 3704 ft | 309 kts | 167° |
| 2026-04-23 04:28 | -2.31276 | -79.88757 | 4460 ft | 317 kts | 167° |
| 2026-04-23 04:29 | -2.33433 | -79.88284 | 5273 ft | 322 kts | 167° |
| 2026-04-23 04:29 | -2.35646 | -79.87798 | 6128 ft | 325 kts | 168° |
| 2026-04-23 04:29 | -2.37881 | -79.87309 | 6934 ft | 330 kts | 167° |
| 2026-04-23 04:29 | -2.40126 | -79.86816 | 7762 ft | 333 kts | 167° |
| 2026-04-23 04:30 | -2.42435 | -79.86311 | 8538 ft | 338 kts | 167° |
| 2026-04-23 04:30 | -2.44730 | -79.85807 | 9362 ft | 341 kts | 167° |
| 2026-04-23 04:30 | -2.47093 | -79.85289 | 10107 ft | 347 kts | 167° |
| 2026-04-23 04:30 | -2.49438 | -79.84775 | 10954 ft | 348 kts | 167° |
| 2026-04-23 04:31 | -2.51843 | -79.84248 | 11698 ft | 353 kts | 167° |
| 2026-04-23 04:31 | -2.54237 | -79.83722 | 12498 ft | 355 kts | 167° |
| 2026-04-23 04:31 | -2.56668 | -79.83188 | 13247 ft | 358 kts | 166° |
| 2026-04-23 04:31 | -2.59120 | -79.82651 | 14006 ft | 361 kts | 166° |
| 2026-04-23 04:32 | -2.61599 | -79.82106 | 14756 ft | 364 kts | 166° |
| 2026-04-23 04:32 | -2.64122 | -79.81553 | 15509 ft | 367 kts | 166° |
| 2026-04-23 04:32 | -2.66627 | -79.81004 | 16229 ft | 370 kts | 166° |
| 2026-04-23 04:32 | -2.69153 | -79.80449 | 16932 ft | 373 kts | 166° |
| 2026-04-23 04:33 | -2.71725 | -79.79884 | 17632 ft | 376 kts | 166° |
| 2026-04-23 04:33 | -2.74320 | -79.79314 | 18271 ft | 381 kts | 166° |
| 2026-04-23 04:33 | -2.76907 | -79.78746 | 18850 ft | 386 kts | 166° |
| 2026-04-23 04:33 | -2.79597 | -79.78158 | 19451 ft | 391 kts | 168° |
| 2026-04-23 04:34 | -2.82319 | -79.77768 | 20025 ft | 397 kts | 173° |
| 2026-04-23 04:34 | -2.85099 | -79.77422 | 20599 ft | 402 kts | 172° |
| 2026-04-23 04:34 | -2.87886 | -79.77072 | 21189 ft | 406 kts | 173° |
| 2026-04-23 04:34 | -2.90721 | -79.76711 | 21746 ft | 412 kts | 173° |
| 2026-04-23 04:35 | -2.93612 | -79.76342 | 22330 ft | 416 kts | 173° |
| 2026-04-23 04:35 | -2.96525 | -79.75970 | 22924 ft | 420 kts | 173° |
| 2026-04-23 04:35 | -2.99437 | -79.75598 | 23477 ft | 425 kts | 173° |
| 2026-04-23 04:35 | -3.02398 | -79.75221 | 24116 ft | 427 kts | 173° |
| 2026-04-23 04:36 | -3.05390 | -79.74837 | 24683 ft | 431 kts | 173° |
| 2026-04-23 04:36 | -3.08391 | -79.74454 | 25324 ft | 432 kts | 173° |
| 2026-04-23 04:36 | -3.11402 | -79.74068 | 25912 ft | 434 kts | 172° |
| 2026-04-23 04:36 | -3.14417 | -79.73682 | 26392 ft | 439 kts | 172° |
| 2026-04-23 04:37 | -3.17483 | -79.73289 | 27004 ft | 440 kts | 172° |
| 2026-04-23 04:37 | -3.20552 | -79.72897 | 27565 ft | 442 kts | 172° |
| 2026-04-23 04:37 | -3.23634 | -79.72502 | 28094 ft | 444 kts | 171° |
| 2026-04-23 04:37 | -3.26688 | -79.72111 | 28615 ft | 447 kts | 171° |
| 2026-04-23 04:38 | -3.29796 | -79.71712 | 29126 ft | 449 kts | 171° |
| 2026-04-23 04:38 | -3.32925 | -79.71312 | 29621 ft | 452 kts | 171° |
| 2026-04-23 04:38 | -3.36070 | -79.70909 | 30136 ft | 454 kts | 171° |
| 2026-04-23 04:38 | -3.39243 | -79.70502 | 30496 ft | 459 kts | 171° |
| 2026-04-23 04:39 | -3.42469 | -79.70088 | 30939 ft | 463 kts | 171° |
| 2026-04-23 04:39 | -3.45660 | -79.69680 | 31334 ft | 466 kts | 171° |
| 2026-04-23 04:39 | -3.48887 | -79.69267 | 32389 ft | 452 kts | 171° |
| 2026-04-23 04:39 | -3.51934 | -79.68878 | 33376 ft | 441 kts | 171° |
| 2026-04-23 04:40 | -3.54999 | -79.68484 | 33674 ft | 444 kts | 171° |
| 2026-04-23 04:40 | -3.58085 | -79.68088 | 34137 ft | 443 kts | 171° |
| 2026-04-23 04:40 | -3.61154 | -79.67694 | 34533 ft | 443 kts | 171° |
| 2026-04-23 04:40 | -3.64255 | -79.67297 | 34972 ft | 442 kts | 171° |
| 2026-04-23 04:41 | -3.67283 | -79.66908 | 35330 ft | 442 kts | 171° |
| 2026-04-23 04:41 | -3.70370 | -79.66512 | 35751 ft | 440 kts | 171° |
| 2026-04-23 04:41 | -3.73431 | -79.66120 | 35972 ft | 444 kts | 171° |
| 2026-04-23 04:41 | -3.76551 | -79.65720 | 35962 ft | 452 kts | 171° |
| 2026-04-23 04:42 | -3.79711 | -79.65314 | 36093 ft | 458 kts | 171° |
| 2026-04-23 04:42 | -3.82894 | -79.64906 | 36401 ft | 458 kts | 171° |
| 2026-04-23 04:42 | -3.86068 | -79.64500 | 36759 ft | 458 kts | 171° |
| 2026-04-23 04:42 | -3.89251 | -79.64092 | 37011 ft | 459 kts | 171° |
| 2026-04-23 04:43 | -3.95597 | -79.63277 | 37102 ft | 455 kts | 171° |
| 2026-04-23 04:43 | -4.01956 | -79.62462 | 37116 ft | 463 kts | 171° |
| 2026-04-23 04:44 | -4.08457 | -79.61628 | 37128 ft | 471 kts | 172° |
| 2026-04-23 04:44 | -4.15006 | -79.60788 | 37133 ft | 474 kts | 172° |
| 2026-04-23 04:45 | -4.21580 | -79.59944 | 37140 ft | 472 kts | 171° |
| 2026-04-23 04:45 | -4.28145 | -79.59101 | 37146 ft | 472 kts | 171° |
| 2026-04-23 04:46 | -4.34722 | -79.58257 | 37136 ft | 473 kts | 172° |
| 2026-04-23 04:46 | -4.41275 | -79.57416 | 37123 ft | 472 kts | 171° |
| 2026-04-23 04:47 | -4.47849 | -79.56571 | 37111 ft | 472 kts | 171° |
| 2026-04-23 04:47 | -4.54393 | -79.55743 | 37117 ft | 472 kts | 172° |
| 2026-04-23 04:48 | -4.60957 | -79.54925 | 37154 ft | 472 kts | 172° |
| 2026-04-23 04:48 | -4.67511 | -79.54106 | 37190 ft | 473 kts | 172° |
| 2026-04-23 04:49 | -4.74073 | -79.53288 | 37223 ft | 472 kts | 172° |
| 2026-04-23 04:49 | -4.80648 | -79.52467 | 37242 ft | 473 kts | 172° |
| 2026-04-23 04:50 | -4.87216 | -79.51646 | 37252 ft | 473 kts | 172° |
| 2026-04-23 04:50 | -4.93786 | -79.50826 | 37259 ft | 472 kts | 172° |
| 2026-04-23 04:51 | -5.00370 | -79.50003 | 37266 ft | 472 kts | 172° |
| 2026-04-23 04:51 | -5.06919 | -79.49185 | 37257 ft | 473 kts | 172° |
| 2026-04-23 04:52 | -5.13524 | -79.48359 | 37237 ft | 473 kts | 172° |
| 2026-04-23 04:52 | -5.20057 | -79.47543 | 37224 ft | 472 kts | 172° |
| 2026-04-23 04:53 | -5.26608 | -79.46724 | 37211 ft | 472 kts | 172° |
| 2026-04-23 04:53 | -5.33172 | -79.45902 | 37216 ft | 473 kts | 172° |
| 2026-04-23 04:54 | -5.39742 | -79.45081 | 37225 ft | 473 kts | 172° |
| 2026-04-23 04:54 | -5.46300 | -79.44260 | 37234 ft | 472 kts | 172° |
| 2026-04-23 04:55 | -5.52889 | -79.43436 | 37241 ft | 472 kts | 172° |
| 2026-04-23 04:55 | -5.59462 | -79.42613 | 37236 ft | 474 kts | 172° |
| 2026-04-23 04:56 | -5.65990 | -79.41796 | 37230 ft | 472 kts | 172° |
| 2026-04-23 04:56 | -5.72570 | -79.40972 | 37223 ft | 471 kts | 172° |
| 2026-04-23 04:57 | -5.79105 | -79.40153 | 37215 ft | 473 kts | 172° |
| 2026-04-23 04:57 | -5.85695 | -79.39327 | 37204 ft | 473 kts | 172° |
| 2026-04-23 04:58 | -5.92234 | -79.38508 | 37193 ft | 473 kts | 172° |
| 2026-04-23 04:58 | -5.98801 | -79.37685 | 37181 ft | 473 kts | 172° |
| 2026-04-23 04:59 | -6.05377 | -79.36861 | 37184 ft | 472 kts | 172° |
| 2026-04-23 04:59 | -6.11946 | -79.36037 | 37196 ft | 472 kts | 172° |
| 2026-04-23 05:00 | -6.18511 | -79.35214 | 37211 ft | 473 kts | 172° |
| 2026-04-23 05:00 | -6.25072 | -79.34390 | 37230 ft | 473 kts | 172° |
| 2026-04-23 05:01 | -6.31639 | -79.33566 | 37212 ft | 473 kts | 172° |
| 2026-04-23 05:01 | -6.38192 | -79.32743 | 37178 ft | 473 kts | 172° |
| 2026-04-23 05:02 | -6.44749 | -79.31920 | 37137 ft | 472 kts | 172° |
| 2026-04-23 05:02 | -6.51335 | -79.31093 | 37090 ft | 472 kts | 172° |
| 2026-04-23 05:03 | -6.57888 | -79.30270 | 37074 ft | 472 kts | 172° |
| 2026-04-23 05:03 | -6.64449 | -79.29445 | 37059 ft | 473 kts | 172° |
| 2026-04-23 05:04 | -6.71021 | -79.28619 | 37044 ft | 472 kts | 172° |
| 2026-04-23 05:04 | -6.77586 | -79.27793 | 37032 ft | 473 kts | 172° |
| 2026-04-23 05:05 | -6.84140 | -79.26969 | 37032 ft | 472 kts | 172° |
| 2026-04-23 05:05 | -6.90694 | -79.26145 | 37028 ft | 472 kts | 172° |
| 2026-04-23 05:06 | -6.97285 | -79.25315 | 37027 ft | 473 kts | 172° |
| 2026-04-23 05:06 | -7.03819 | -79.24493 | 37027 ft | 472 kts | 172° |
| 2026-04-23 05:07 | -7.10378 | -79.23667 | 37025 ft | 472 kts | 172° |
| 2026-04-23 05:07 | -7.16973 | -79.22836 | 37022 ft | 472 kts | 172° |
| 2026-04-23 05:08 | -7.23534 | -79.22010 | 37017 ft | 472 kts | 172° |
| 2026-04-23 05:08 | -7.30070 | -79.21186 | 37018 ft | 472 kts | 172° |
| 2026-04-23 05:09 | -7.36620 | -79.20361 | 37027 ft | 472 kts | 172° |
| 2026-04-23 05:09 | -7.43201 | -79.19531 | 37029 ft | 473 kts | 172° |
| 2026-04-23 05:10 | -7.49772 | -79.18702 | 37028 ft | 472 kts | 172° |
| 2026-04-23 05:10 | -7.56340 | -79.17873 | 37021 ft | 473 kts | 172° |
| 2026-04-23 05:11 | -7.62875 | -79.17049 | 37008 ft | 472 kts | 172° |
| 2026-04-23 05:11 | -7.69426 | -79.16222 | 36998 ft | 473 kts | 172° |
| 2026-04-23 05:12 | -7.76033 | -79.15387 | 36984 ft | 472 kts | 172° |
| 2026-04-23 05:12 | -7.82552 | -79.14564 | 36980 ft | 471 kts | 172° |
| 2026-04-23 05:13 | -7.89124 | -79.13733 | 36979 ft | 473 kts | 172° |
| 2026-04-23 05:14 | -7.98981 | -79.12487 | 36980 ft | 472 kts | 172° |
| 2026-04-23 05:14 | -8.05504 | -79.11633 | 36973 ft | 471 kts | 168° |
| 2026-04-23 05:15 | -8.11702 | -79.09476 | 36982 ft | 467 kts | 150° |
| 2026-04-23 05:15 | -8.17455 | -79.06382 | 36959 ft | 469 kts | 149° |
| 2026-04-23 05:16 | -8.23229 | -79.03208 | 36946 ft | 468 kts | 149° |
| 2026-04-23 05:16 | -8.28965 | -79.00028 | 36937 ft | 467 kts | 149° |
| 2026-04-23 05:17 | -8.34695 | -78.96845 | 36943 ft | 467 kts | 149° |
| 2026-04-23 05:17 | -8.40403 | -78.93669 | 36949 ft | 468 kts | 149° |
| 2026-04-23 05:18 | -8.46147 | -78.90473 | 36952 ft | 468 kts | 149° |
| 2026-04-23 05:18 | -8.51875 | -78.87284 | 36953 ft | 467 kts | 149° |
| 2026-04-23 05:19 | -8.57589 | -78.84102 | 36956 ft | 468 kts | 149° |
| 2026-04-23 05:19 | -8.63334 | -78.80902 | 36957 ft | 468 kts | 149° |
| 2026-04-23 05:20 | -8.69052 | -78.77715 | 36957 ft | 468 kts | 149° |
| 2026-04-23 05:20 | -8.74757 | -78.74535 | 36957 ft | 468 kts | 149° |
| 2026-04-23 05:21 | -8.80511 | -78.71326 | 36956 ft | 467 kts | 149° |
| 2026-04-23 05:21 | -8.86221 | -78.68140 | 36956 ft | 467 kts | 149° |
| 2026-04-23 05:22 | -8.91931 | -78.64954 | 36959 ft | 468 kts | 149° |
| 2026-04-23 05:22 | -8.97669 | -78.61751 | 36958 ft | 468 kts | 149° |
| 2026-04-23 05:23 | -9.03413 | -78.58543 | 36959 ft | 468 kts | 149° |
| 2026-04-23 05:23 | -9.09115 | -78.55357 | 36958 ft | 468 kts | 149° |
| 2026-04-23 05:24 | -9.14855 | -78.52156 | 36950 ft | 467 kts | 150° |
| 2026-04-23 05:24 | -9.20748 | -78.49286 | 36947 ft | 469 kts | 153° |
| 2026-04-23 05:25 | -9.26649 | -78.46423 | 36945 ft | 468 kts | 153° |
| 2026-04-23 05:25 | -9.32552 | -78.43555 | 36949 ft | 468 kts | 153° |
| 2026-04-23 05:26 | -9.38478 | -78.40675 | 36951 ft | 469 kts | 153° |
| 2026-04-23 05:26 | -9.44364 | -78.37812 | 36952 ft | 469 kts | 153° |
| 2026-04-23 05:27 | -9.50278 | -78.34934 | 36951 ft | 468 kts | 152° |
| 2026-04-23 05:27 | -9.56204 | -78.32050 | 36956 ft | 469 kts | 152° |
| 2026-04-23 05:28 | -9.62107 | -78.29175 | 36958 ft | 468 kts | 152° |
| 2026-04-23 05:28 | -9.67998 | -78.26305 | 36962 ft | 468 kts | 153° |
| 2026-04-23 05:29 | -9.73896 | -78.23431 | 36967 ft | 469 kts | 152° |
| 2026-04-23 05:29 | -9.79832 | -78.20536 | 36975 ft | 468 kts | 152° |
| 2026-04-23 05:29 | -9.82792 | -78.19093 | 36651 ft | 477 kts | 152° |
| 2026-04-23 05:30 | -9.85823 | -78.17614 | 36112 ft | 480 kts | 152° |
| 2026-04-23 05:30 | -9.88833 | -78.16147 | 35510 ft | 475 kts | 152° |
| 2026-04-23 05:30 | -9.91798 | -78.14700 | 35014 ft | 470 kts | 152° |
| 2026-04-23 05:30 | -9.94734 | -78.13268 | 34465 ft | 468 kts | 152° |
| 2026-04-23 05:31 | -9.97677 | -78.11830 | 33916 ft | 469 kts | 152° |
| 2026-04-23 05:31 | -10.00638 | -78.10384 | 33332 ft | 470 kts | 152° |
| 2026-04-23 05:31 | -10.03612 | -78.08931 | 32688 ft | 472 kts | 152° |
| 2026-04-23 05:31 | -10.06572 | -78.07484 | 31959 ft | 472 kts | 152° |
| 2026-04-23 05:32 | -10.09551 | -78.06029 | 31191 ft | 472 kts | 152° |
| 2026-04-23 05:32 | -10.12529 | -78.04574 | 30378 ft | 468 kts | 153° |
| 2026-04-23 05:32 | -10.15421 | -78.03162 | 29906 ft | 451 kts | 153° |
| 2026-04-23 05:32 | -10.18221 | -78.01793 | 30023 ft | 438 kts | 152° |
| 2026-04-23 05:33 | -10.20989 | -78.00439 | 29796 ft | 447 kts | 153° |
| 2026-04-23 05:33 | -10.23862 | -77.99036 | 29161 ft | 460 kts | 153° |
| 2026-04-23 05:33 | -10.26747 | -77.97628 | 28456 ft | 455 kts | 153° |
| 2026-04-23 05:33 | -10.29582 | -77.96244 | 27860 ft | 449 kts | 153° |
| 2026-04-23 05:34 | -10.32411 | -77.94863 | 27242 ft | 447 kts | 153° |
| 2026-04-23 05:34 | -10.35231 | -77.93485 | 26636 ft | 444 kts | 153° |
| 2026-04-23 05:34 | -10.38006 | -77.92130 | 26047 ft | 442 kts | 154° |
| 2026-04-23 05:34 | -10.40767 | -77.90781 | 25470 ft | 439 kts | 154° |
| 2026-04-23 05:35 | -10.43540 | -77.89426 | 24914 ft | 435 kts | 154° |
| 2026-04-23 05:35 | -10.46268 | -77.88092 | 24346 ft | 432 kts | 154° |
| 2026-04-23 05:35 | -10.48966 | -77.86773 | 23815 ft | 428 kts | 154° |
| 2026-04-23 05:35 | -10.51658 | -77.85457 | 23433 ft | 423 kts | 154° |
| 2026-04-23 05:36 | -10.54313 | -77.84158 | 23158 ft | 420 kts | 154° |
| 2026-04-23 05:36 | -10.56948 | -77.82869 | 23247 ft | 413 kts | 154° |
| 2026-04-23 05:36 | -10.59587 | -77.81579 | 22883 ft | 430 kts | 154° |
| 2026-04-23 05:36 | -10.62312 | -77.80246 | 22284 ft | 434 kts | 154° |
| 2026-04-23 05:37 | -10.65038 | -77.78912 | 21619 ft | 425 kts | 154° |
| 2026-04-23 05:37 | -10.67670 | -77.77624 | 21031 ft | 415 kts | 154° |
| 2026-04-23 05:37 | -10.70258 | -77.76357 | 20528 ft | 408 kts | 154° |
| 2026-04-23 05:37 | -10.72812 | -77.75106 | 19994 ft | 404 kts | 153° |
| 2026-04-23 05:38 | -10.75332 | -77.73872 | 19473 ft | 400 kts | 153° |
| 2026-04-23 05:38 | -10.77834 | -77.72646 | 18953 ft | 396 kts | 153° |
| 2026-04-23 05:38 | -10.80315 | -77.71430 | 18437 ft | 392 kts | 153° |
| 2026-04-23 05:38 | -10.82769 | -77.70227 | 17929 ft | 388 kts | 153° |
| 2026-04-23 05:39 | -10.85221 | -77.69025 | 17422 ft | 383 kts | 153° |
| 2026-04-23 05:39 | -10.87615 | -77.67851 | 16936 ft | 379 kts | 153° |
| 2026-04-23 05:39 | -10.89988 | -77.66688 | 16472 ft | 374 kts | 153° |
| 2026-04-23 05:39 | -10.92312 | -77.65548 | 16033 ft | 369 kts | 153° |
| 2026-04-23 05:40 | -10.94640 | -77.64405 | 15614 ft | 366 kts | 153° |
| 2026-04-23 05:40 | -10.96931 | -77.63281 | 15210 ft | 363 kts | 153° |
| 2026-04-23 05:40 | -10.99223 | -77.62156 | 14799 ft | 362 kts | 153° |
| 2026-04-23 05:40 | -11.01510 | -77.61034 | 14381 ft | 361 kts | 153° |
| 2026-04-23 05:41 | -11.03764 | -77.59927 | 13962 ft | 359 kts | 153° |
| 2026-04-23 05:41 | -11.06018 | -77.58820 | 13540 ft | 358 kts | 153° |
| 2026-04-23 05:41 | -11.08290 | -77.57705 | 13108 ft | 356 kts | 153° |
| 2026-04-23 05:41 | -11.10520 | -77.56609 | 12677 ft | 354 kts | 153° |
| 2026-04-23 05:42 | -11.12755 | -77.55512 | 12242 ft | 353 kts | 153° |
| 2026-04-23 05:42 | -11.14979 | -77.54419 | 11810 ft | 351 kts | 153° |
| 2026-04-23 05:42 | -11.17135 | -77.53360 | 11570 ft | 335 kts | 153° |
| 2026-04-23 05:42 | -11.19191 | -77.52350 | 11555 ft | 315 kts | 153° |
| 2026-04-23 05:43 | -11.21142 | -77.51391 | 11542 ft | 304 kts | 153° |
| 2026-04-23 05:43 | -11.23041 | -77.50456 | 11530 ft | 300 kts | 153° |
| 2026-04-23 05:43 | -11.24963 | -77.49516 | 11230 ft | 312 kts | 154° |
| 2026-04-23 05:43 | -11.26934 | -77.48591 | 11056 ft | 304 kts | 154° |
| 2026-04-23 05:44 | -11.28830 | -77.47699 | 10844 ft | 298 kts | 154° |
| 2026-04-23 05:44 | -11.30724 | -77.46807 | 10480 ft | 298 kts | 154° |
| 2026-04-23 05:44 | -11.32607 | -77.45920 | 10133 ft | 297 kts | 155° |
| 2026-04-23 05:44 | -11.34488 | -77.45034 | 9791 ft | 295 kts | 155° |
| 2026-04-23 05:45 | -11.36374 | -77.44147 | 9452 ft | 294 kts | 155° |
| 2026-04-23 05:45 | -11.38227 | -77.43273 | 9121 ft | 293 kts | 155° |
| 2026-04-23 05:45 | -11.40075 | -77.42403 | 8789 ft | 292 kts | 155° |
| 2026-04-23 05:45 | -11.41945 | -77.41522 | 8450 ft | 290 kts | 155° |
| 2026-04-23 05:46 | -11.43778 | -77.40658 | 8126 ft | 289 kts | 155° |
| 2026-04-23 05:46 | -11.45609 | -77.39795 | 7792 ft | 288 kts | 155° |
| 2026-04-23 05:46 | -11.47435 | -77.38934 | 7460 ft | 287 kts | 155° |
| 2026-04-23 05:46 | -11.49258 | -77.38075 | 7130 ft | 286 kts | 155° |
| 2026-04-23 05:47 | -11.51057 | -77.37227 | 6805 ft | 284 kts | 155° |
| 2026-04-23 05:47 | -11.52863 | -77.36375 | 6462 ft | 284 kts | 155° |
| 2026-04-23 05:47 | -11.54662 | -77.35527 | 6114 ft | 284 kts | 155° |
| 2026-04-23 05:47 | -11.56486 | -77.34666 | 5737 ft | 285 kts | 155° |
| 2026-04-23 05:48 | -11.58297 | -77.33812 | 5433 ft | 282 kts | 155° |
| 2026-04-23 05:48 | -11.60031 | -77.32994 | 5423 ft | 268 kts | 155° |
| 2026-04-23 05:48 | -11.61696 | -77.32208 | 5338 ft | 260 kts | 155° |
| 2026-04-23 05:48 | -11.63357 | -77.31424 | 5084 ft | 262 kts | 155° |
| 2026-04-23 05:49 | -11.65015 | -77.30642 | 4791 ft | 261 kts | 155° |
| 2026-04-23 05:49 | -11.66681 | -77.29856 | 4499 ft | 261 kts | 155° |
| 2026-04-23 05:49 | -11.68352 | -77.29067 | 4199 ft | 261 kts | 155° |
| 2026-04-23 05:49 | -11.70009 | -77.28284 | 3860 ft | 263 kts | 155° |
| 2026-04-23 05:50 | -11.71690 | -77.27490 | 3416 ft | 269 kts | 155° |
| 2026-04-23 05:50 | -11.73395 | -77.26685 | 3193 ft | 263 kts | 154° |
| 2026-04-23 05:50 | -11.75031 | -77.25912 | 3185 ft | 250 kts | 155° |
| 2026-04-23 05:50 | -11.76569 | -77.25186 | 3195 ft | 237 kts | 154° |
| 2026-04-23 05:51 | -11.77940 | -77.24310 | 3187 ft | 223 kts | 140° |
| 2026-04-23 05:51 | -11.79152 | -77.23366 | 3191 ft | 216 kts | 145° |
| 2026-04-23 05:51 | -11.80414 | -77.22524 | 3233 ft | 213 kts | 147° |
| 2026-04-23 05:51 | -11.81744 | -77.21704 | 2491 ft | 242 kts | 149° |
| 2026-04-23 05:52 | -11.83201 | -77.20881 | 2344 ft | 230 kts | 151° |
| 2026-04-23 05:52 | -11.84605 | -77.20123 | 2120 ft | 221 kts | 152° |
| 2026-04-23 05:52 | -11.85949 | -77.19426 | 1913 ft | 205 kts | 152° |
| 2026-04-23 05:52 | -11.87196 | -77.18791 | 1789 ft | 193 kts | 153° |
| 2026-04-23 05:53 | -11.88377 | -77.18201 | 1830 ft | 185 kts | 153° |
| 2026-04-23 05:53 | -11.89517 | -77.17635 | 1832 ft | 176 kts | 154° |
| 2026-04-23 05:53 | -11.90626 | -77.17088 | 1815 ft | 174 kts | 153° |
| 2026-04-23 05:53 | -11.91735 | -77.16543 | 1798 ft | 176 kts | 154° |
| 2026-04-23 05:54 | -11.92843 | -77.16000 | 1727 ft | 174 kts | 153° |
| 2026-04-23 05:54 | -11.93935 | -77.15466 | 1540 ft | 170 kts | 154° |
| 2026-04-23 05:54 | -11.94989 | -77.14950 | 1321 ft | 164 kts | 153° |
| 2026-04-23 05:54 | -11.96029 | -77.14441 | 1118 ft | 162 kts | 153° |
| 2026-04-23 05:55 | -11.97055 | -77.13940 | 928 ft | 163 kts | 153° |
| 2026-04-23 05:55 | -11.98097 | -77.13432 | 723 ft | 165 kts | 153° |
| 2026-04-23 05:55 | -11.99121 | -77.12929 | 499 ft | 163 kts | 153° |
| 2026-04-23 05:55 | -12.00159 | -77.12421 | 311 ft | 166 kts | 153° |
| 2026-04-23 05:56 | -12.01234 | -77.11914 | 152 ft | 167 kts | 150° |
| 2026-04-23 05:56 | -12.02109 | -77.11469 | 146 ft | 102 kts | 154° |
| 2026-04-23 05:56 | -12.02562 | -77.11251 | 145 ft | 63 kts | 154° |
| 2026-04-23 05:56 | -12.02843 | -77.11050 | 146 ft | 21 kts | 127° |
| 2026-04-23 05:57 | -12.02901 | -77.10963 | 146 ft | 14 kts | 127° |
| 2026-04-23 05:57 | -12.02958 | -77.10884 | 146 ft | 13 kts | 122° |
| 2026-04-23 05:57 | -12.02978 | -77.10842 | 146 ft | 4 kts | 98° |
| 2026-04-23 05:57 | -12.02967 | -77.10803 | 146 ft | 9 kts | 55° |
| 2026-04-23 05:58 | -12.02880 | -77.10786 | 146 ft | 18 kts | 337° |
| 2026-04-23 05:58 | -12.02742 | -77.10854 | 146 ft | 20 kts | 333° |
| 2026-04-23 05:58 | -12.02660 | -77.10892 | 146 ft | 5 kts | 2° |
| 2026-04-23 05:58 | -12.02639 | -77.10868 | 146 ft | 5 kts | 68° |
| 2026-04-23 05:59 | -12.02625 | -77.10836 | 146 ft | 4 kts | 66° |
| 2026-04-23 05:59 | -12.02624 | -77.10833 | 146 ft | 0 kts | 66° |